sensor_id;sensor_type;location;lat;lon;timestamp;P1;durP1;ratioP1;P2;durP2;ratioP2
795;SDS011;381;48.770;9.188;2023-03-24T00:01:54;5.33;;;4.93;;
795;SDS011;381;48.770;9.188;2023-03-24T00:06:57;6.13;;;5.60;;
795;SDS011;381;48.770;9.188;2023-03-24T00:12:00;5.77;;;5.37;;
795;SDS011;381;48.770;9.188;2023-03-24T00:17:04;4.90;;;4.60;;
795;SDS011;381;48.770;9.188;2023-03-24T00:22:08;4.60;;;4.30;;
795;SDS011;381;48.770;9.188;2023-03-24T00:27:13;5.73;;;5.33;;
795;SDS011;381;48.770;9.188;2023-03-24T00:32:18;4.40;;;4.00;;
795;SDS011;381;48.770;9.188;2023-03-24T00:37:20;4.20;;;3.90;;
795;SDS011;381;48.770;9.188;2023-03-24T00:42:23;5.80;;;4.27;;
795;SDS011;381;48.770;9.188;2023-03-24T00:47:26;4.00;;;3.80;;
795;SDS011;381;48.770;9.188;2023-03-24T00:52:29;4.93;;;4.53;;
795;SDS011;381;48.770;9.188;2023-03-24T00:57:33;4.90;;;4.40;;
795;SDS011;381;48.770;9.188;2023-03-24T01:02:37;5.40;;;4.67;;
795;SDS011;381;48.770;9.188;2023-03-24T01:07:40;3.73;;;3.50;;
795;SDS011;381;48.770;9.188;2023-03-24T01:12:42;4.40;;;4.10;;
795;SDS011;381;48.770;9.188;2023-03-24T01:17:46;4.70;;;4.30;;
795;SDS011;381;48.770;9.188;2023-03-24T01:22:48;4.33;;;4.03;;
795;SDS011;381;48.770;9.188;2023-03-24T01:27:51;3.80;;;3.60;;
795;SDS011;381;48.770;9.188;2023-03-24T01:32:55;8.30;;;7.60;;
795;SDS011;381;48.770;9.188;2023-03-24T01:37:58;4.10;;;3.90;;
795;SDS011;381;48.770;9.188;2023-03-24T01:43:01;3.70;;;3.50;;
795;SDS011;381;48.770;9.188;2023-03-24T01:48:05;3.60;;;3.40;;
795;SDS011;381;48.770;9.188;2023-03-24T01:53:11;3.40;;;3.20;;
795;SDS011;381;48.770;9.188;2023-03-24T01:58:15;3.57;;;3.37;;
795;SDS011;381;48.770;9.188;2023-03-24T02:03:40;3.90;;;3.60;;
795;SDS011;381;48.770;9.188;2023-03-24T02:08:45;5.47;;;3.70;;
795;SDS011;381;48.770;9.188;2023-03-24T02:13:52;4.47;;;4.07;;
795;SDS011;381;48.770;9.188;2023-03-24T02:19:03;3.93;;;3.63;;
795;SDS011;381;48.770;9.188;2023-03-24T02:30:15;3.43;;;3.23;;
795;SDS011;381;48.770;9.188;2023-03-24T02:41:13;4.30;;;2.87;;
795;SDS011;381;48.770;9.188;2023-03-24T02:46:20;3.33;;;3.13;;
795;SDS011;381;48.770;9.188;2023-03-24T02:51:26;3.27;;;3.07;;
795;SDS011;381;48.770;9.188;2023-03-24T02:56:35;2.93;;;2.73;;
795;SDS011;381;48.770;9.188;2023-03-24T03:02:06;3.57;;;3.33;;
795;SDS011;381;48.770;9.188;2023-03-24T03:07:16;3.43;;;3.23;;
795;SDS011;381;48.770;9.188;2023-03-24T03:12:23;3.80;;;3.50;;
795;SDS011;381;48.770;9.188;2023-03-24T03:17:30;3.60;;;3.40;;
795;SDS011;381;48.770;9.188;2023-03-24T03:22:37;3.50;;;3.20;;
795;SDS011;381;48.770;9.188;2023-03-24T03:27:45;2.93;;;2.83;;
795;SDS011;381;48.770;9.188;2023-03-24T03:32:48;3.13;;;2.93;;
795;SDS011;381;48.770;9.188;2023-03-24T03:37:56;3.70;;;3.50;;
795;SDS011;381;48.770;9.188;2023-03-24T03:43:07;3.60;;;3.17;;
795;SDS011;381;48.770;9.188;2023-03-24T03:48:10;3.63;;;3.40;;
795;SDS011;381;48.770;9.188;2023-03-24T03:53:13;3.30;;;3.10;;
795;SDS011;381;48.770;9.188;2023-03-24T03:58:20;3.20;;;3.00;;
795;SDS011;381;48.770;9.188;2023-03-24T04:03:31;3.10;;;2.90;;
795;SDS011;381;48.770;9.188;2023-03-24T04:08:47;3.27;;;3.10;;
795;SDS011;381;48.770;9.188;2023-03-24T04:14:04;3.30;;;3.10;;
795;SDS011;381;48.770;9.188;2023-03-24T04:19:27;3.17;;;2.97;;
795;SDS011;381;48.770;9.188;2023-03-24T04:24:45;3.33;;;3.17;;
795;SDS011;381;48.770;9.188;2023-03-24T04:29:58;3.50;;;3.20;;
795;SDS011;381;48.770;9.188;2023-03-24T04:35:09;3.57;;;3.37;;
795;SDS011;381;48.770;9.188;2023-03-24T04:40:33;3.70;;;3.40;;
795;SDS011;381;48.770;9.188;2023-03-24T04:45:43;3.10;;;3.00;;
795;SDS011;381;48.770;9.188;2023-03-24T04:51:09;3.17;;;2.97;;
795;SDS011;381;48.770;9.188;2023-03-24T04:56:33;3.23;;;3.13;;
795;SDS011;381;48.770;9.188;2023-03-24T05:01:46;3.73;;;3.43;;
795;SDS011;381;48.770;9.188;2023-03-24T05:07:05;3.27;;;3.07;;
795;SDS011;381;48.770;9.188;2023-03-24T05:12:07;2.80;;;2.60;;
795;SDS011;381;48.770;9.188;2023-03-24T05:17:28;4.43;;;3.10;;
795;SDS011;381;48.770;9.188;2023-03-24T05:22:30;3.37;;;3.17;;
795;SDS011;381;48.770;9.188;2023-03-24T05:27:33;3.10;;;3.00;;
795;SDS011;381;48.770;9.188;2023-03-24T05:32:47;4.30;;;3.10;;
795;SDS011;381;48.770;9.188;2023-03-24T05:37:50;3.40;;;3.20;;
795;SDS011;381;48.770;9.188;2023-03-24T05:42:52;3.80;;;3.60;;
795;SDS011;381;48.770;9.188;2023-03-24T05:48:00;4.03;;;3.73;;
795;SDS011;381;48.770;9.188;2023-03-24T05:53:18;3.70;;;3.50;;
795;SDS011;381;48.770;9.188;2023-03-24T05:58:42;3.73;;;3.43;;
795;SDS011;381;48.770;9.188;2023-03-24T06:03:46;3.40;;;3.20;;
795;SDS011;381;48.770;9.188;2023-03-24T06:08:49;3.50;;;3.30;;
795;SDS011;381;48.770;9.188;2023-03-24T06:13:54;4.00;;;3.60;;
795;SDS011;381;48.770;9.188;2023-03-24T06:19:00;3.37;;;3.17;;
795;SDS011;381;48.770;9.188;2023-03-24T06:24:20;4.10;;;3.70;;
795;SDS011;381;48.770;9.188;2023-03-24T06:29:24;4.13;;;3.83;;
795;SDS011;381;48.770;9.188;2023-03-24T06:34:28;4.90;;;4.60;;
795;SDS011;381;48.770;9.188;2023-03-24T06:39:47;4.30;;;4.00;;
795;SDS011;381;48.770;9.188;2023-03-24T06:44:52;4.80;;;4.50;;
795;SDS011;381;48.770;9.188;2023-03-24T06:49:57;4.97;;;4.57;;
795;SDS011;381;48.770;9.188;2023-03-24T06:54:59;4.03;;;3.77;;
795;SDS011;381;48.770;9.188;2023-03-24T07:00:03;5.13;;;4.73;;
795;SDS011;381;48.770;9.188;2023-03-24T07:05:17;4.53;;;4.23;;
795;SDS011;381;48.770;9.188;2023-03-24T07:10:20;3.87;;;3.60;;
795;SDS011;381;48.770;9.188;2023-03-24T07:15:23;4.87;;;4.47;;
795;SDS011;381;48.770;9.188;2023-03-24T07:20:28;6.73;;;5.97;;
795;SDS011;381;48.770;9.188;2023-03-24T07:25:49;5.70;;;5.30;;
795;SDS011;381;48.770;9.188;2023-03-24T07:31:11;6.20;;;5.80;;
795;SDS011;381;48.770;9.188;2023-03-24T07:36:16;7.83;;;6.87;;
795;SDS011;381;48.770;9.188;2023-03-24T07:41:18;7.50;;;6.90;;
795;SDS011;381;48.770;9.188;2023-03-24T07:46:26;7.80;;;7.30;;
795;SDS011;381;48.770;9.188;2023-03-24T07:51:29;8.87;;;8.27;;
795;SDS011;381;48.770;9.188;2023-03-24T07:57:03;12.13;;;11.43;;
795;SDS011;381;48.770;9.188;2023-03-24T08:02:08;13.30;;;12.60;;
795;SDS011;381;48.770;9.188;2023-03-24T08:07:41;12.83;;;11.93;;
795;SDS011;381;48.770;9.188;2023-03-24T08:12:44;13.93;;;13.13;;
795;SDS011;381;48.770;9.188;2023-03-24T08:17:47;15.20;;;14.00;;
795;SDS011;381;48.770;9.188;2023-03-24T08:22:51;13.33;;;12.53;;
795;SDS011;381;48.770;9.188;2023-03-24T08:27:53;13.60;;;12.90;;
795;SDS011;381;48.770;9.188;2023-03-24T08:32:56;11.27;;;10.57;;
795;SDS011;381;48.770;9.188;2023-03-24T08:38:01;12.13;;;11.07;;
795;SDS011;381;48.770;9.188;2023-03-24T08:43:04;12.50;;;11.80;;
795;SDS011;381;48.770;9.188;2023-03-24T08:48:08;10.47;;;9.93;;
795;SDS011;381;48.770;9.188;2023-03-24T08:53:12;11.97;;;11.27;;
795;SDS011;381;48.770;9.188;2023-03-24T08:58:15;12.00;;;10.97;;
795;SDS011;381;48.770;9.188;2023-03-24T09:03:18;10.80;;;10.27;;
795;SDS011;381;48.770;9.188;2023-03-24T09:08:22;8.37;;;7.97;;
795;SDS011;381;48.770;9.188;2023-03-24T09:13:25;9.50;;;8.90;;
795;SDS011;381;48.770;9.188;2023-03-24T09:18:27;7.67;;;7.17;;
795;SDS011;381;48.770;9.188;2023-03-24T09:23:31;7.20;;;6.80;;
795;SDS011;381;48.770;9.188;2023-03-24T09:28:33;6.47;;;6.17;;
795;SDS011;381;48.770;9.188;2023-03-24T09:33:36;6.07;;;5.57;;
795;SDS011;381;48.770;9.188;2023-03-24T09:38:39;6.10;;;5.70;;
795;SDS011;381;48.770;9.188;2023-03-24T09:43:42;6.53;;;5.97;;
795;SDS011;381;48.770;9.188;2023-03-24T09:48:48;6.43;;;6.13;;
795;SDS011;381;48.770;9.188;2023-03-24T09:53:57;6.20;;;5.80;;
795;SDS011;381;48.770;9.188;2023-03-24T09:59:10;6.23;;;5.67;;
795;SDS011;381;48.770;9.188;2023-03-24T10:04:17;4.87;;;4.53;;
795;SDS011;381;48.770;9.188;2023-03-24T10:09:26;4.87;;;4.53;;
795;SDS011;381;48.770;9.188;2023-03-24T10:14:35;5.07;;;4.77;;
795;SDS011;381;48.770;9.188;2023-03-24T10:19:50;4.30;;;4.07;;
795;SDS011;381;48.770;9.188;2023-03-24T10:24:58;5.10;;;4.80;;
795;SDS011;381;48.770;9.188;2023-03-24T10:30:10;6.10;;;5.70;;
795;SDS011;381;48.770;9.188;2023-03-24T10:35:17;3.53;;;3.30;;
795;SDS011;381;48.770;9.188;2023-03-24T10:40:24;2.70;;;2.50;;
795;SDS011;381;48.770;9.188;2023-03-24T10:45:31;3.90;;;2.60;;
795;SDS011;381;48.770;9.188;2023-03-24T10:50:34;3.60;;;3.30;;
795;SDS011;381;48.770;9.188;2023-03-24T10:55:42;2.20;;;2.10;;
795;SDS011;381;48.770;9.188;2023-03-24T11:00:44;2.37;;;2.27;;
795;SDS011;381;48.770;9.188;2023-03-24T11:05:48;2.70;;;1.87;;
795;SDS011;381;48.770;9.188;2023-03-24T11:10:59;2.20;;;2.10;;
795;SDS011;381;48.770;9.188;2023-03-24T11:16:07;2.23;;;2.13;;
795;SDS011;381;48.770;9.188;2023-03-24T11:21:13;2.40;;;2.30;;
795;SDS011;381;48.770;9.188;2023-03-24T11:26:17;2.33;;;2.23;;
795;SDS011;381;48.770;9.188;2023-03-24T11:31:22;1.70;;;1.60;;
795;SDS011;381;48.770;9.188;2023-03-24T11:42:05;1.90;;;1.80;;
795;SDS011;381;48.770;9.188;2023-03-24T11:47:17;1.80;;;1.70;;
795;SDS011;381;48.770;9.188;2023-03-24T11:52:24;1.70;;;1.60;;
795;SDS011;381;48.770;9.188;2023-03-24T11:57:38;1.60;;;1.50;;
795;SDS011;381;48.770;9.188;2023-03-24T12:02:57;2.93;;;2.73;;
795;SDS011;381;48.770;9.188;2023-03-24T12:08:19;1.40;;;1.40;;
795;SDS011;381;48.770;9.188;2023-03-24T12:13:32;1.90;;;1.80;;
795;SDS011;381;48.770;9.188;2023-03-24T12:18:42;4.10;;;1.80;;
795;SDS011;381;48.770;9.188;2023-03-24T12:24:13;1.07;;;1.07;;
795;SDS011;381;48.770;9.188;2023-03-24T12:29:34;1.33;;;1.30;;
795;SDS011;381;48.770;9.188;2023-03-24T12:34:55;1.17;;;1.17;;
795;SDS011;381;48.770;9.188;2023-03-24T12:40:27;1.70;;;1.20;;
795;SDS011;381;48.770;9.188;2023-03-24T12:46:13;1.37;;;1.27;;
795;SDS011;381;48.770;9.188;2023-03-24T12:51:26;1.10;;;1.10;;
795;SDS011;381;48.770;9.188;2023-03-24T12:56:36;0.90;;;0.90;;
795;SDS011;381;48.770;9.188;2023-03-24T13:01:43;2.03;;;1.20;;
795;SDS011;381;48.770;9.188;2023-03-24T13:06:49;1.77;;;1.67;;
795;SDS011;381;48.770;9.188;2023-03-24T13:12:00;1.40;;;1.30;;
795;SDS011;381;48.770;9.188;2023-03-24T13:17:07;1.50;;;1.40;;
795;SDS011;381;48.770;9.188;2023-03-24T13:22:17;1.50;;;1.40;;
795;SDS011;381;48.770;9.188;2023-03-24T13:27:22;1.37;;;1.27;;
795;SDS011;381;48.770;9.188;2023-03-24T13:32:29;1.63;;;1.40;;
795;SDS011;381;48.770;9.188;2023-03-24T13:37:36;2.87;;;2.50;;
795;SDS011;381;48.770;9.188;2023-03-24T13:42:41;1.67;;;1.57;;
795;SDS011;381;48.770;9.188;2023-03-24T13:47:48;1.10;;;1.10;;
795;SDS011;381;48.770;9.188;2023-03-24T13:53:03;1.60;;;1.40;;
795;SDS011;381;48.770;9.188;2023-03-24T13:58:10;1.50;;;1.40;;
795;SDS011;381;48.770;9.188;2023-03-24T14:03:31;1.17;;;1.07;;
795;SDS011;381;48.770;9.188;2023-03-24T14:14:04;1.53;;;1.43;;
795;SDS011;381;48.770;9.188;2023-03-24T14:19:19;1.50;;;1.40;;
795;SDS011;381;48.770;9.188;2023-03-24T14:24:24;1.60;;;1.50;;
795;SDS011;381;48.770;9.188;2023-03-24T14:29:38;6.03;;;3.50;;
795;SDS011;381;48.770;9.188;2023-03-24T14:34:50;3.00;;;2.80;;
795;SDS011;381;48.770;9.188;2023-03-24T14:39:58;3.83;;;3.47;;
795;SDS011;381;48.770;9.188;2023-03-24T14:45:01;4.37;;;4.07;;
795;SDS011;381;48.770;9.188;2023-03-24T14:50:11;4.50;;;4.20;;
795;SDS011;381;48.770;9.188;2023-03-24T14:55:18;5.53;;;5.23;;
795;SDS011;381;48.770;9.188;2023-03-24T15:00:22;6.70;;;6.40;;
795;SDS011;381;48.770;9.188;2023-03-24T15:05:30;5.00;;;4.70;;
795;SDS011;381;48.770;9.188;2023-03-24T15:10:37;6.03;;;5.40;;
795;SDS011;381;48.770;9.188;2023-03-24T15:15:45;11.10;;;10.33;;
795;SDS011;381;48.770;9.188;2023-03-24T15:20:49;8.60;;;8.20;;
795;SDS011;381;48.770;9.188;2023-03-24T15:25:51;8.67;;;8.20;;
795;SDS011;381;48.770;9.188;2023-03-24T15:30:55;5.00;;;4.80;;
795;SDS011;381;48.770;9.188;2023-03-24T15:36:00;8.30;;;7.80;;
795;SDS011;381;48.770;9.188;2023-03-24T15:41:03;8.23;;;7.93;;
795;SDS011;381;48.770;9.188;2023-03-24T15:46:16;4.97;;;4.77;;
795;SDS011;381;48.770;9.188;2023-03-24T15:56:59;8.60;;;8.20;;
795;SDS011;381;48.770;9.188;2023-03-24T16:02:02;4.80;;;4.60;;
795;SDS011;381;48.770;9.188;2023-03-24T16:07:21;7.50;;;7.20;;
795;SDS011;381;48.770;9.188;2023-03-24T16:12:29;6.67;;;6.37;;
795;SDS011;381;48.770;9.188;2023-03-24T16:17:31;6.20;;;5.70;;
795;SDS011;381;48.770;9.188;2023-03-24T16:22:35;5.43;;;5.13;;
795;SDS011;381;48.770;9.188;2023-03-24T16:27:37;4.40;;;4.20;;
795;SDS011;381;48.770;9.188;2023-03-24T16:32:40;4.77;;;4.47;;
795;SDS011;381;48.770;9.188;2023-03-24T16:37:44;5.40;;;5.10;;
795;SDS011;381;48.770;9.188;2023-03-24T16:42:46;3.73;;;3.57;;
795;SDS011;381;48.770;9.188;2023-03-24T16:47:48;3.83;;;3.63;;
795;SDS011;381;48.770;9.188;2023-03-24T16:52:53;5.67;;;3.47;;
795;SDS011;381;48.770;9.188;2023-03-24T16:57:55;4.77;;;3.30;;
795;SDS011;381;48.770;9.188;2023-03-24T17:02:58;3.33;;;3.13;;
795;SDS011;381;48.770;9.188;2023-03-24T17:08:02;4.90;;;4.60;;
795;SDS011;381;48.770;9.188;2023-03-24T17:13:07;4.53;;;3.80;;
795;SDS011;381;48.770;9.188;2023-03-24T17:18:20;4.87;;;4.57;;
795;SDS011;381;48.770;9.188;2023-03-24T17:23:24;4.90;;;4.60;;
795;SDS011;381;48.770;9.188;2023-03-24T17:28:26;5.10;;;4.63;;
795;SDS011;381;48.770;9.188;2023-03-24T17:33:28;6.37;;;5.80;;
795;SDS011;381;48.770;9.188;2023-03-24T17:38:31;3.60;;;3.43;;
795;SDS011;381;48.770;9.188;2023-03-24T17:43:33;4.70;;;4.50;;
795;SDS011;381;48.770;9.188;2023-03-24T17:48:36;4.30;;;4.10;;
795;SDS011;381;48.770;9.188;2023-03-24T17:53:39;3.40;;;3.20;;
795;SDS011;381;48.770;9.188;2023-03-24T17:58:44;4.80;;;4.50;;
795;SDS011;381;48.770;9.188;2023-03-24T18:03:47;4.83;;;4.23;;
795;SDS011;381;48.770;9.188;2023-03-24T18:08:51;4.77;;;4.37;;
795;SDS011;381;48.770;9.188;2023-03-24T18:13:53;4.50;;;4.07;;
795;SDS011;381;48.770;9.188;2023-03-24T18:18:55;3.30;;;3.10;;
795;SDS011;381;48.770;9.188;2023-03-24T18:24:01;2.80;;;2.70;;
795;SDS011;381;48.770;9.188;2023-03-24T18:29:04;3.10;;;2.97;;
795;SDS011;381;48.770;9.188;2023-03-24T18:34:07;3.80;;;3.60;;
795;SDS011;381;48.770;9.188;2023-03-24T18:39:10;3.57;;;3.37;;
795;SDS011;381;48.770;9.188;2023-03-24T18:44:13;3.30;;;3.10;;
795;SDS011;381;48.770;9.188;2023-03-24T18:49:15;3.33;;;3.03;;
795;SDS011;381;48.770;9.188;2023-03-24T18:54:19;3.50;;;3.27;;
795;SDS011;381;48.770;9.188;2023-03-24T18:59:22;4.30;;;3.23;;
795;SDS011;381;48.770;9.188;2023-03-24T19:04:24;7.53;;;3.47;;
795;SDS011;381;48.770;9.188;2023-03-24T19:09:28;3.00;;;2.70;;
795;SDS011;381;48.770;9.188;2023-03-24T19:14:30;2.60;;;2.50;;
795;SDS011;381;48.770;9.188;2023-03-24T19:19:33;2.37;;;2.17;;
795;SDS011;381;48.770;9.188;2023-03-24T19:24:36;3.27;;;2.97;;
795;SDS011;381;48.770;9.188;2023-03-24T19:29:38;3.03;;;2.80;;
795;SDS011;381;48.770;9.188;2023-03-24T19:34:40;3.03;;;2.73;;
795;SDS011;381;48.770;9.188;2023-03-24T19:39:44;3.70;;;3.30;;
795;SDS011;381;48.770;9.188;2023-03-24T19:44:46;2.97;;;2.77;;
795;SDS011;381;48.770;9.188;2023-03-24T19:49:48;2.90;;;2.70;;
795;SDS011;381;48.770;9.188;2023-03-24T19:54:51;2.47;;;2.37;;
795;SDS011;381;48.770;9.188;2023-03-24T19:59:53;3.63;;;3.03;;
795;SDS011;381;48.770;9.188;2023-03-24T20:04:56;2.27;;;2.17;;
795;SDS011;381;48.770;9.188;2023-03-24T20:09:59;2.47;;;2.27;;
795;SDS011;381;48.770;9.188;2023-03-24T20:15:01;3.63;;;3.00;;
795;SDS011;381;48.770;9.188;2023-03-24T20:20:05;2.67;;;2.33;;
795;SDS011;381;48.770;9.188;2023-03-24T20:25:11;3.23;;;2.90;;
795;SDS011;381;48.770;9.188;2023-03-24T20:30:15;3.13;;;2.83;;
795;SDS011;381;48.770;9.188;2023-03-24T20:35:19;2.77;;;2.57;;
795;SDS011;381;48.770;9.188;2023-03-24T20:40:23;3.60;;;1.90;;
795;SDS011;381;48.770;9.188;2023-03-24T20:45:25;2.17;;;2.07;;
795;SDS011;381;48.770;9.188;2023-03-24T20:50:27;2.60;;;2.40;;
795;SDS011;381;48.770;9.188;2023-03-24T20:55:33;2.83;;;2.63;;
795;SDS011;381;48.770;9.188;2023-03-24T21:00:36;2.90;;;2.70;;
795;SDS011;381;48.770;9.188;2023-03-24T21:05:41;3.47;;;2.37;;
795;SDS011;381;48.770;9.188;2023-03-24T21:10:44;2.87;;;2.63;;
795;SDS011;381;48.770;9.188;2023-03-24T21:15:46;6.43;;;2.60;;
795;SDS011;381;48.770;9.188;2023-03-24T21:20:49;5.40;;;3.70;;
795;SDS011;381;48.770;9.188;2023-03-24T21:25:55;3.50;;;3.20;;
795;SDS011;381;48.770;9.188;2023-03-24T21:30:57;5.10;;;2.63;;
795;SDS011;381;48.770;9.188;2023-03-24T21:36:06;2.07;;;1.97;;
795;SDS011;381;48.770;9.188;2023-03-24T21:41:10;2.70;;;2.50;;
795;SDS011;381;48.770;9.188;2023-03-24T21:46:12;3.00;;;2.63;;
795;SDS011;381;48.770;9.188;2023-03-24T21:51:20;3.67;;;2.83;;
795;SDS011;381;48.770;9.188;2023-03-24T21:56:28;3.67;;;3.27;;
795;SDS011;381;48.770;9.188;2023-03-24T22:01:38;3.27;;;2.60;;
795;SDS011;381;48.770;9.188;2023-03-24T22:06:42;2.70;;;2.50;;
795;SDS011;381;48.770;9.188;2023-03-24T22:11:45;3.40;;;2.27;;
795;SDS011;381;48.770;9.188;2023-03-24T22:16:49;1.97;;;1.87;;
795;SDS011;381;48.770;9.188;2023-03-24T22:21:52;2.43;;;2.23;;
795;SDS011;381;48.770;9.188;2023-03-24T22:27:04;4.83;;;2.13;;
795;SDS011;381;48.770;9.188;2023-03-24T22:32:06;2.50;;;2.27;;
795;SDS011;381;48.770;9.188;2023-03-24T22:37:09;2.50;;;2.20;;
795;SDS011;381;48.770;9.188;2023-03-24T22:42:12;3.00;;;2.60;;
795;SDS011;381;48.770;9.188;2023-03-24T22:47:16;3.03;;;2.60;;
795;SDS011;381;48.770;9.188;2023-03-24T22:52:18;2.20;;;2.00;;
795;SDS011;381;48.770;9.188;2023-03-24T22:57:24;5.50;;;2.80;;
795;SDS011;381;48.770;9.188;2023-03-24T23:02:29;3.90;;;2.90;;
795;SDS011;381;48.770;9.188;2023-03-24T23:07:31;3.83;;;3.40;;
795;SDS011;381;48.770;9.188;2023-03-24T23:12:37;2.97;;;2.67;;
795;SDS011;381;48.770;9.188;2023-03-24T23:17:42;6.53;;;6.00;;
795;SDS011;381;48.770;9.188;2023-03-24T23:22:44;4.67;;;4.30;;
795;SDS011;381;48.770;9.188;2023-03-24T23:27:48;5.00;;;4.60;;
795;SDS011;381;48.770;9.188;2023-03-24T23:32:50;4.30;;;3.90;;
795;SDS011;381;48.770;9.188;2023-03-24T23:37:53;5.27;;;4.87;;
795;SDS011;381;48.770;9.188;2023-03-24T23:42:56;5.90;;;5.30;;
795;SDS011;381;48.770;9.188;2023-03-24T23:48:03;5.90;;;5.63;;
795;SDS011;381;48.770;9.188;2023-03-24T23:53:06;6.20;;;5.80;;
795;SDS011;381;48.770;9.188;2023-03-24T23:58:11;5.90;;;5.60;;
